Time;durP1;ratioP1;P1;durP2;ratioP2;P2;SDS_P1;SDS_P2;PMS_P1;PMS_P2;Temp;Humidity;BMP_temperature;BMP_pressure;BME280_temperature;BME280_humidity;BME280_pressure;Samples;Min_cycle;Max_cycle;Signal;HPM_P1;HPM_P2
2023/10/18 00:02:16;;;;;;;6.55;5.95;;;;;;;10.53;68.59;95073.19;5114348;27;20217;-71
2023/10/18 00:04:45;;;;;;;6.68;6.03;;;;;;;10.61;68.35;95075.03;5111920;27;20195;-71
2023/10/18 00:07:15;;;;;;;7.57;6.88;;;;;;;10.62;68.43;95066.19;5111153;27;20262;-71
2023/10/18 00:09:48;;;;;;;6.78;6.22;;;;;;;10.62;68.81;95066.19;5116339;27;20207;-72
2023/10/18 00:12:16;;;;;;;6.38;5.82;;;;;;;10.64;68.45;95063.41;5114000;27;20271;-71
2023/10/18 00:14:43;;;;;;;7.53;6.82;;;;;;;10.60;68.40;95073.41;5115346;27;20219;-71
2023/10/18 00:17:09;;;;;;;7.40;6.70;;;;;;;10.48;68.80;95058.84;5112345;27;20215;-71
2023/10/18 00:19:34;;;;;;;7.85;7.05;;;;;;;10.54;68.64;95060.88;5132896;27;20194;-71
2023/10/18 00:22:00;;;;;;;8.95;7.47;;;;;;;10.62;68.33;95060.94;5114484;27;20215;-71
2023/10/18 00:24:25;;;;;;;8.27;7.28;;;;;;;10.64;68.20;95064.25;5115324;27;20219;-71
2023/10/18 00:26:53;;;;;;;8.00;7.30;;;;;;;10.58;68.42;95059.56;5111712;28;20226;-72
2023/10/18 00:29:18;;;;;;;8.77;7.97;;;;;;;10.64;68.68;95061.63;5131558;27;20219;-71
2023/10/18 00:31:43;;;;;;;7.63;6.97;;;;;;;10.48;68.77;95049.16;5121351;27;20236;-71
2023/10/18 00:34:10;;;;;;;9.80;8.25;;;;;;;10.57;69.22;95052.66;5109587;27;20287;-71
2023/10/18 00:36:36;;;;;;;8.98;8.20;;;;;;;10.54;69.56;95048.53;5130349;27;20306;-72
2023/10/18 00:39:14;;;;;;;8.90;8.10;;;;;;;10.54;69.66;95048.53;5130823;27;20305;-71
2023/10/18 00:41:44;;;;;;;13.02;11.68;;;;;;;10.54;69.55;95045.09;5132272;27;20301;-73
2023/10/18 00:44:12;;;;;;;17.35;15.75;;;;;;;10.54;69.74;95042.47;5132012;27;20305;-72
2023/10/18 00:46:39;;;;;;;17.25;15.73;;;;;;;10.58;69.96;95049.91;5131883;27;20239;-72
2023/10/18 00:49:13;;;;;;;18.77;17.13;;;;;;;10.59;69.70;95038.41;5133209;27;20222;-72
2023/10/18 00:51:46;;;;;;;15.73;13.82;;;;;;;10.71;70.13;95046.03;5098712;28;20226;-72
2023/10/18 00:54:12;;;;;;;13.90;12.50;;;;;;;10.70;70.52;95044.41;5131461;27;20218;-72
2023/10/18 00:56:46;;;;;;;16.50;12.10;;;;;;;10.62;70.60;95033.81;5110787;27;20222;-73
2023/10/18 00:59:19;;;;;;;13.25;12.02;;;;;;;10.63;70.71;95044.16;5110247;28;20309;-72
2023/10/18 01:01:46;;;;;;;12.18;11.05;;;;;;;10.64;70.34;95037.94;5114858;27;20257;-72
2023/10/18 01:04:12;;;;;;;12.15;10.98;;;;;;;10.74;70.13;95053.63;5109611;28;20230;-73
2023/10/18 01:06:43;;;;;;;13.23;11.60;;;;;;;10.67;70.36;95052.59;5115019;28;20258;-72
2023/10/18 01:09:15;;;;;;;11.88;10.68;;;;;;;10.64;70.55;95059.00;5113401;27;20239;-73
2023/10/18 01:11:41;;;;;;;11.93;10.68;;;;;;;10.65;70.72;95059.81;5128657;27;20677;-73
2023/10/18 01:14:07;;;;;;;12.20;10.93;;;;;;;10.67;70.42;95055.22;5113751;28;20230;-73
2023/10/18 01:16:36;;;;;;;12.85;11.50;;;;;;;10.67;70.54;95048.16;5113848;28;20194;-73
2023/10/18 01:19:04;;;;;;;12.82;11.52;;;;;;;10.62;70.01;95049.59;5113700;27;20219;-72
2023/10/18 01:21:30;;;;;;;12.43;11.15;;;;;;;10.58;69.76;95046.41;5112986;28;20212;-73
2023/10/18 01:23:59;;;;;;;13.10;11.80;;;;;;;10.59;69.53;95041.03;5110143;28;20314;-72
2023/10/18 01:26:30;;;;;;;12.20;10.98;;;;;;;10.47;70.07;95041.41;5116723;28;20272;-72
2023/10/18 01:28:57;;;;;;;12.13;10.85;;;;;;;10.51;70.02;95051.47;5110375;28;20190;-73
2023/10/18 01:31:23;;;;;;;13.23;11.93;;;;;;;10.58;69.65;95044.66;5111182;28;20202;-72
2023/10/18 01:33:50;;;;;;;13.10;11.73;;;;;;;10.35;69.87;95043.44;5105623;28;20215;-72
2023/10/18 01:36:19;;;;;;;14.07;12.68;;;;;;;10.34;70.01;95052.28;5111173;28;20215;-72
2023/10/18 01:38:46;;;;;;;13.20;11.90;;;;;;;10.34;70.13;95049.66;5111648;28;20219;-73
2023/10/18 01:41:34;;;;;;;13.57;12.15;;;;;;;10.44;69.32;95053.03;5109604;28;20218;-73
2023/10/18 01:44:07;;;;;;;14.23;12.73;;;;;;;10.47;69.26;95051.91;5126533;28;20184;-72
2023/10/18 01:46:45;;;;;;;12.85;11.55;;;;;;;10.42;69.65;95052.34;5128109;28;20179;-73
2023/10/18 01:49:13;;;;;;;13.48;12.18;;;;;;;10.52;69.36;95054.91;5109727;28;20306;-72
2023/10/18 01:51:43;;;;;;;12.63;11.32;;;;;;;10.48;69.14;95048.31;5111875;28;20215;-72
2023/10/18 01:54:15;;;;;;;11.82;10.52;;;;;;;10.43;69.35;95040.88;5111815;28;20272;-72
2023/10/18 01:56:42;;;;;;;13.30;12.00;;;;;;;10.48;68.92;95043.06;5108249;28;20212;-71
2023/10/18 01:59:08;;;;;;;14.10;12.70;;;;;;;10.46;69.28;95043.22;5111453;28;20234;-71
2023/10/18 02:01:34;;;;;;;13.35;12.07;;;;;;;10.53;69.27;95046.03;5109839;28;20191;-72
2023/10/18 02:04:00;;;;;;;13.77;11.25;;;;;;;10.59;68.68;95051.53;5112430;28;20223;-72
2023/10/18 02:06:27;;;;;;;12.48;10.55;;;;;;;10.65;68.50;95055.38;5109715;28;20220;-72
2023/10/18 02:08:52;;;;;;;11.70;10.60;;;;;;;10.78;67.83;95057.63;5110776;28;20220;-71
2023/10/18 02:11:18;;;;;;;12.80;11.38;;;;;;;10.70;67.99;95060.19;5127588;28;20272;-72
2023/10/18 02:13:44;;;;;;;12.75;11.38;;;;;;;10.64;68.29;95061.63;5111890;28;20190;-71
2023/10/18 02:16:15;;;;;;;12.60;11.30;;;;;;;10.69;68.00;95058.50;5111620;28;20215;-72
2023/10/18 02:18:40;;;;;;;13.05;11.65;;;;;;;10.64;68.26;95063.41;5111345;28;20247;-71
2023/10/18 02:21:06;;;;;;;13.23;11.88;;;;;;;10.64;68.50;95060.75;5124569;28;20319;-72
2023/10/18 02:23:34;;;;;;;12.83;11.40;;;;;;;10.62;68.72;95060.94;5102916;28;20223;-71
2023/10/18 02:26:30;;;;;;;14.77;11.00;;;;;;;10.58;68.67;95054.31;5110738;28;20175;-73
2023/10/18 02:28:59;;;;;;;12.37;11.17;;;;;;;10.37;69.42;95051.97;5108066;28;20182;-73
2023/10/18 02:31:25;;;;;;;13.30;11.93;;;;;;;10.18;70.40;95054.72;5113286;28;20232;-72
2023/10/18 02:33:53;;;;;;;13.03;11.73;;;;;;;10.21;70.03;95052.63;5118111;27;20272;-73
2023/10/18 02:36:23;;;;;;;13.07;11.77;;;;;;;10.30;70.05;95056.19;5114405;28;20215;-73
2023/10/18 02:38:52;;;;;;;13.80;12.40;;;;;;;10.37;69.68;95057.22;5113873;28;20223;-73
2023/10/18 02:41:21;;;;;;;14.05;12.45;;;;;;;10.42;69.77;95054.97;5108689;28;20287;-73
2023/10/18 02:43:48;;;;;;;12.70;11.50;;;;;;;10.51;69.81;95053.28;5107326;28;20183;-74
2023/10/18 02:46:26;;;;;;;12.80;10.98;;;;;;;10.41;69.83;95050.72;5113682;27;20218;-73
2023/10/18 02:48:57;;;;;;;13.50;12.15;;;;;;;10.43;69.93;95054.03;5113285;28;20238;-73
2023/10/18 02:51:24;;;;;;;11.43;10.30;;;;;;;10.50;69.66;95047.16;5112510;28;20231;-72
2023/10/18 02:53:51;;;;;;;12.30;11.10;;;;;;;10.50;69.86;95044.53;5116492;27;20264;-73
2023/10/18 02:56:17;;;;;;;12.00;10.80;;;;;;;10.43;69.98;95046.13;5114013;28;20219;-73
2023/10/18 02:58:53;;;;;;;12.30;11.00;;;;;;;10.40;70.02;95038.56;5131003;27;20254;-73
2023/10/18 03:01:18;;;;;;;13.15;11.85;;;;;;;10.42;70.52;95038.38;5118742;27;20223;-73
2023/10/18 03:03:46;;;;;;;12.68;11.48;;;;;;;10.40;70.37;95043.81;5113185;27;20222;-73
2023/10/18 03:06:16;;;;;;;11.63;10.52;;;;;;;10.35;70.38;95046.06;5124279;27;20223;-73
2023/10/18 03:08:49;;;;;;;13.13;11.90;;;;;;;10.31;70.88;95042.06;5109736;28;20215;-73
2023/10/18 03:11:15;;;;;;;12.05;10.95;;;;;;;10.43;70.39;95040.06;5112957;28;20222;-73
2023/10/18 03:13:42;;;;;;;12.43;11.13;;;;;;;10.47;70.42;95036.13;5130986;27;20187;-73
2023/10/18 03:18:41;;;;;;;14.27;12.87;;;;;;;10.46;70.92;95045.00;5114395;28;20211;-72
2023/10/18 03:21:07;;;;;;;14.30;12.43;;;;;;;10.38;70.84;95032.63;5112934;28;20230;-71
2023/10/18 03:23:33;;;;;;;12.98;11.68;;;;;;;10.36;71.21;95029.31;5112143;28;20228;-72
2023/10/18 03:25:59;;;;;;;13.77;11.73;;;;;;;10.31;71.35;95032.38;5112820;28;20190;-72
2023/10/18 03:28:34;;;;;;;11.68;10.43;;;;;;;10.31;70.84;95040.25;5109861;28;20179;-72
2023/10/18 03:31:00;;;;;;;11.57;10.30;;;;;;;10.29;71.22;95041.38;5110434;28;20206;-72
2023/10/18 03:33:28;;;;;;;11.07;10.07;;;;;;;10.18;71.04;95037.13;5112382;28;20337;-72
2023/10/18 03:36:06;;;;;;;11.07;10.07;;;;;;;10.20;71.31;95029.94;5113572;27;20207;-71
2023/10/18 03:38:39;;;;;;;10.70;9.00;;;;;;;10.27;71.12;95025.78;5122128;27;20239;-71
2023/10/18 03:41:08;;;;;;;9.95;9.10;;;;;;;10.27;71.03;95022.31;5113046;28;20207;-70
2023/10/18 03:43:36;;;;;;;9.65;8.77;;;;;;;10.25;71.18;95021.63;5112311;28;20184;-71
2023/10/18 03:46:13;;;;;;;8.77;8.05;;;;;;;10.33;70.78;95008.59;5112703;27;20216;-70
2023/10/18 03:49:16;;;;;;;9.85;8.98;;;;;;;10.30;70.64;95014.16;5110945;28;20234;-69
2023/10/18 03:51:32;;;;;;;9.20;8.40;;;;;;;10.25;70.87;95027.69;5106199;27;20291;-70
2023/10/18 03:54:00;;;;;;;9.70;8.32;;;;;;;10.27;70.88;95024.94;5110585;28;20226;-71
2023/10/18 03:56:26;;;;;;;9.20;8.32;;;;;;;10.19;71.33;95027.47;5111947;27;20363;-71
2023/10/18 03:59:01;;;;;;;8.90;7.97;;;;;;;10.28;71.15;95026.59;5112106;28;20270;-71
2023/10/18 04:01:41;;;;;;;8.73;7.93;;;;;;;10.34;70.93;95020.75;5104451;28;20193;-70
2023/10/18 04:04:07;;;;;;;10.20;8.60;;;;;;;10.25;71.27;95004.03;5109609;28;20242;-71
2023/10/18 04:06:35;;;;;;;9.32;8.43;;;;;;;10.23;71.46;94998.09;5106695;28;20247;-71
2023/10/18 04:09:13;;;;;;;8.10;7.40;;;;;;;10.35;71.05;95007.47;5109385;28;20235;-70
2023/10/18 04:11:39;;;;;;;8.93;8.07;;;;;;;10.31;71.12;95007.91;5112631;28;20219;-71
2023/10/18 04:14:05;;;;;;;8.90;8.02;;;;;;;10.24;71.41;94998.97;5112239;27;20201;-70
2023/10/18 04:16:30;;;;;;;8.35;7.65;;;;;;;10.27;71.44;94999.50;5111503;28;20180;-71
2023/10/18 04:18:57;;;;;;;11.55;8.85;;;;;;;10.26;71.55;95003.06;5112572;28;20230;-71
2023/10/18 04:21:27;;;;;;;9.57;8.68;;;;;;;10.26;71.62;95004.88;5111745;28;20216;-70
2023/10/18 04:23:56;;;;;;;10.57;9.48;;;;;;;10.26;71.91;95002.22;5111454;28;20224;-71
2023/10/18 04:26:25;;;;;;;9.20;8.40;;;;;;;10.29;71.86;95009.84;5112735;28;20179;-70
2023/10/18 04:29:10;;;;;;;10.05;9.15;;;;;;;10.33;71.74;95006.78;5109829;28;20191;-71
2023/10/18 04:31:35;;;;;;;9.30;8.37;;;;;;;10.44;71.14;95005.72;5111825;28;20311;-71
2023/10/18 04:34:03;;;;;;;9.40;8.33;;;;;;;10.31;71.92;95006.09;5110202;28;20240;-69
2023/10/18 04:36:33;;;;;;;9.53;8.43;;;;;;;10.24;71.72;94998.97;5111815;28;20221;-71
2023/10/18 04:38:59;;;;;;;8.77;7.87;;;;;;;10.30;71.69;95011.53;5111459;27;20230;-70
2023/10/18 04:41:27;;;;;;;9.43;8.63;;;;;;;10.20;71.71;95002.84;5109241;28;20215;-69
2023/10/18 04:44:04;;;;;;;8.85;7.68;;;;;;;10.23;71.94;95005.16;5112291;28;20174;-70
2023/10/18 04:46:30;;;;;;;9.13;8.05;;;;;;;10.27;72.08;94999.50;5106971;28;20211;-70
2023/10/18 04:54:05;;;;;;;9.75;8.85;;;;;;;10.31;72.19;95010.53;5112437;27;20282;-70
2023/10/18 04:56:34;;;;;;;12.77;9.17;;;;;;;10.32;71.85;95014.81;5124701;27;20257;-69
2023/10/18 04:59:06;;;;;;;8.25;7.45;;;;;;;10.30;71.83;95027.28;5110053;28;20180;-70
2023/10/18 05:04:19;;;;;;;7.72;7.03;;;;;;;10.33;71.50;95033.06;5110814;28;20269;-72
2023/10/18 05:06:54;;;;;;;7.95;7.25;;;;;;;10.43;71.14;95035.63;5126532;27;20254;-70
2023/10/18 05:11:59;;;;;;;8.07;6.85;;;;;;;10.36;71.55;95050.34;5112347;28;20223;-70
2023/10/18 05:14:43;;;;;;;8.35;7.47;;;;;;;10.43;71.81;95055.84;5127970;27;20215;-71
2023/10/18 05:17:17;;;;;;;8.60;7.80;;;;;;;10.42;71.39;95062.88;5104874;28;20187;-72
2023/10/18 05:19:43;;;;;;;9.70;7.20;;;;;;;10.42;71.70;95068.13;5108292;28;20206;-67
2023/10/18 05:22:09;;;;;;;8.60;6.90;;;;;;;10.40;71.43;95066.63;5121906;28;20387;-69
2023/10/18 05:24:39;;;;;;;6.88;6.20;;;;;;;10.52;71.28;95071.50;5112931;28;20226;-69
2023/10/18 05:27:19;;;;;;;8.57;6.60;;;;;;;10.51;70.85;95075.13;5110113;28;20222;-69
2023/10/18 05:29:52;;;;;;;7.28;6.35;;;;;;;10.54;70.96;95085.34;5113078;28;20221;-69
2023/10/18 05:35:19;;;;;;;7.80;6.90;;;;;;;10.66;70.70;95100.91;5125417;28;20206;-76
2023/10/18 05:37:50;;;;;;;9.32;7.75;;;;;;;10.50;71.10;95098.94;5103508;28;20218;-75
2023/10/18 05:43:03;;;;;;;8.77;7.88;;;;;;;10.58;70.46;95099.88;5130032;28;20302;-73
2023/10/18 05:45:31;;;;;;;10.40;7.65;;;;;;;10.63;70.13;95103.81;5112686;28;20206;-73
2023/10/18 05:47:58;;;;;;;8.93;8.13;;;;;;;10.67;69.96;95098.13;5113932;28;20219;-73
2023/10/18 05:50:24;;;;;;;12.25;9.15;;;;;;;10.64;69.64;95093.16;5111751;28;20222;-73
2023/10/18 05:52:57;;;;;;;16.35;9.35;;;;;;;10.63;69.90;95088.06;5114444;28;20263;-74
2023/10/18 05:55:23;;;;;;;10.05;9.05;;;;;;;10.69;70.23;95092.69;5113303;28;20217;-73
2023/10/18 05:57:50;;;;;;;10.43;9.07;;;;;;;10.68;69.91;95096.31;5110926;28;20219;-73
2023/10/18 06:00:19;;;;;;;8.05;7.43;;;;;;;10.68;69.57;95084.00;5111162;28;20270;-73
2023/10/18 06:02:47;;;;;;;10.95;7.60;;;;;;;10.59;70.36;95088.34;5108842;27;20306;-73
2023/10/18 06:05:13;;;;;;;8.60;6.80;;;;;;;10.69;69.85;95090.06;5113524;27;20210;-72
2023/10/18 06:07:39;;;;;;;6.78;6.18;;;;;;;10.68;69.91;95089.25;5117492;27;20203;-70
2023/10/18 06:10:16;;;;;;;10.68;8.27;;;;;;;10.72;69.40;95087.97;5111812;27;20225;-71
2023/10/18 06:12:46;;;;;;;7.47;6.72;;;;;;;10.70;69.71;95089.13;5135832;27;20218;-72
2023/10/18 06:15:13;;;;;;;9.52;6.70;;;;;;;10.64;70.08;95090.53;5113165;27;20214;-71
2023/10/18 06:20:29;;;;;;;8.93;6.53;;;;;;;10.66;69.86;95087.75;5119439;27;20274;-72
2023/10/18 06:25:51;;;;;;;8.25;6.50;;;;;;;10.80;69.56;95089.88;5130949;27;20225;-72
2023/10/18 06:28:21;;;;;;;8.10;6.82;;;;;;;10.94;68.68;95091.94;5129765;27;20266;-77
2023/10/18 06:30:51;;;;;;;6.43;5.82;;;;;;;11.04;68.09;95090.06;5125036;27;20210;-78
2023/10/18 06:33:19;;;;;;;7.93;7.13;;;;;;;11.12;68.02;95098.97;5112118;27;20263;-81
2023/10/18 06:35:53;;;;;;;8.02;6.63;;;;;;;11.03;68.19;95093.66;5114413;27;20218;-76
2023/10/18 06:38:22;;;;;;;6.95;6.10;;;;;;;11.11;68.09;95086.81;5109406;27;20182;-73
2023/10/18 06:43:25;;;;;;;5.95;5.30;;;;;;;11.14;67.42;95102.28;5129604;27;20218;-76
2023/10/18 06:45:53;;;;;;;5.55;5.05;;;;;;;11.37;67.06;95102.63;5111887;27;20219;-73
2023/10/18 06:48:19;;;;;;;6.25;5.65;;;;;;;11.45;66.47;95100.88;5110639;27;20220;-77
2023/10/18 06:50:48;;;;;;;9.20;5.88;;;;;;;11.35;67.02;95097.50;5130292;27;20217;-74
2023/10/18 06:53:15;;;;;;;6.38;5.70;;;;;;;11.43;66.79;95113.34;5103542;27;20199;-77
2023/10/18 06:55:44;;;;;;;8.40;5.82;;;;;;;11.41;67.05;95104.81;5111319;27;20179;-76
2023/10/18 06:58:13;;;;;;;6.25;5.65;;;;;;;11.45;66.74;95107.94;5104857;27;20233;-73
2023/10/18 07:00:43;;;;;;;6.65;5.90;;;;;;;11.59;65.89;95106.53;5105947;27;20235;-75
2023/10/18 07:03:16;;;;;;;6.75;6.05;;;;;;;11.53;66.13;95102.72;5104824;27;20215;-74
2023/10/18 07:05:52;;;;;;;6.25;5.65;;;;;;;11.66;65.85;95104.94;5114364;27;20286;-82
2023/10/18 07:08:25;;;;;;;6.53;5.93;;;;;;;11.63;65.13;95113.16;5114570;27;20246;-74
2023/10/18 07:10:54;;;;;;;6.30;5.65;;;;;;;11.83;64.69;95125.13;5111395;27;20339;-74
2023/10/18 07:13:33;;;;;;;6.13;5.63;;;;;;;11.65;65.05;95112.03;5107950;27;20302;-75
2023/10/18 07:16:12;;;;;;;6.78;5.93;;;;;;;11.57;65.72;95113.75;5111554;27;20211;-73
2023/10/18 07:18:38;;;;;;;6.10;5.50;;;;;;;11.75;65.75;95116.34;5128884;27;20238;-74
2023/10/18 07:21:07;;;;;;;9.02;6.05;;;;;;;11.72;65.32;95120.13;5111003;27;20227;-75
2023/10/18 07:23:37;;;;;;;8.50;6.68;;;;;;;11.77;65.32;95109.94;5127352;27;20303;-75
2023/10/18 07:26:14;;;;;;;7.28;6.32;;;;;;;11.84;65.21;95110.13;5112771;27;20182;-76
2023/10/18 07:28:43;;;;;;;6.13;5.43;;;;;;;12.05;64.56;95115.84;5111362;27;20226;-72
2023/10/18 07:31:10;;;;;;;8.15;6.18;;;;;;;12.14;64.25;95116.75;5124149;27;20230;-76
2023/10/18 07:33:42;;;;;;;6.95;5.72;;;;;;;12.07;64.42;95118.34;5125248;27;20221;-76
2023/10/18 07:36:08;;;;;;;7.20;6.50;;;;;;;12.09;64.42;95121.66;5107308;27;20219;-77
2023/10/18 07:38:37;;;;;;;7.10;6.43;;;;;;;12.08;64.34;95107.66;5109774;27;20302;-77
2023/10/18 07:41:04;;;;;;;7.30;6.70;;;;;;;12.09;64.16;95113.75;5110329;27;20210;-73
2023/10/18 07:43:32;;;;;;;7.35;6.57;;;;;;;11.98;64.38;95109.59;5106337;27;20218;-73
2023/10/18 07:45:58;;;;;;;8.73;7.38;;;;;;;12.03;64.21;95114.34;5094851;27;20218;-78
2023/10/18 07:48:27;;;;;;;8.80;7.90;;;;;;;12.15;63.86;95107.84;5105373;27;20218;-72
2023/10/18 07:50:54;;;;;;;6.90;6.30;;;;;;;12.18;63.51;95102.25;5111720;27;20219;-73
2023/10/18 07:53:22;;;;;;;9.15;6.53;;;;;;;12.20;63.50;95099.44;5110179;27;20175;-73
2023/10/18 07:55:53;;;;;;;7.00;6.30;;;;;;;12.26;63.45;95096.16;5106417;27;20213;-73
2023/10/18 07:58:22;;;;;;;7.20;5.93;;;;;;;12.38;63.02;95099.34;5140495;27;20210;-72
2023/10/18 08:03:27;;;;;;;7.85;6.93;;;;;;;12.44;62.63;95106.63;5129114;27;20214;-74
2023/10/18 08:05:55;;;;;;;8.68;7.72;;;;;;;12.69;62.07;95103.03;5107621;27;20328;-75
2023/10/18 08:08:24;;;;;;;8.38;7.40;;;;;;;12.71;61.79;95108.16;5110331;27;20236;-76
2023/10/18 08:10:50;;;;;;;7.20;6.50;;;;;;;12.77;61.26;95107.50;5110454;27;20238;-71
2023/10/18 08:13:16;;;;;;;6.78;5.80;;;;;;;12.75;60.36;95112.94;5113307;27;20226;-71
2023/10/18 08:15:50;;;;;;;7.10;6.20;;;;;;;12.78;60.69;95104.69;5114902;27;20218;-72
2023/10/18 08:18:21;;;;;;;7.65;6.40;;;;;;;12.69;61.22;95107.47;5129260;27;20238;-78
2023/10/18 08:26:05;;;;;;;5.43;4.93;;;;;;;13.01;59.85;95119.88;5110794;27;20183;-75
2023/10/18 08:28:38;;;;;;;5.43;4.93;;;;;;;12.88;59.66;95119.53;5106817;27;20302;-73
2023/10/18 08:31:32;;;;;;;6.88;5.47;;;;;;;13.02;59.71;95118.91;5109316;27;20271;-74
2023/10/18 08:34:05;;;;;;;6.95;5.90;;;;;;;13.20;58.98;95118.72;5105829;28;20222;-74
2023/10/18 08:36:31;;;;;;;7.93;5.82;;;;;;;13.18;59.27;95121.56;5107280;27;20221;-69
2023/10/18 08:39:01;;;;;;;5.70;5.20;;;;;;;13.12;59.27;95127.47;5108416;27;20240;-72
2023/10/18 08:41:36;;;;;;;6.38;5.72;;;;;;;13.09;59.03;95122.53;5126310;27;20241;-71
2023/10/18 08:44:19;;;;;;;7.10;5.38;;;;;;;13.23;58.84;95126.31;5109703;27;20186;-74
2023/10/18 08:49:51;;;;;;;7.72;6.00;;;;;;;13.08;58.54;95130.63;5043799;28;20322;-74
2023/10/18 08:52:20;;;;;;;7.05;6.05;;;;;;;13.23;58.45;95127.16;5043147;28;20232;-76
2023/10/18 08:54:47;;;;;;;6.97;5.57;;;;;;;13.21;58.68;95130.97;5044206;28;20316;-74
2023/10/18 08:57:15;;;;;;;6.30;5.43;;;;;;;13.23;59.05;95123.69;5018812;28;20225;-73
2023/10/18 08:59:45;;;;;;;6.40;5.68;;;;;;;13.33;58.78;95128.84;5042195;28;20324;-68
2023/10/18 09:02:18;;;;;;;8.93;6.13;;;;;;;13.65;58.04;95127.97;5043470;28;20228;-69
2023/10/18 09:04:52;;;;;;;6.53;5.82;;;;;;;13.75;58.60;95130.44;5041798;28;20181;-67
2023/10/18 09:07:21;;;;;;;8.63;5.93;;;;;;;13.59;58.70;95133.94;5027565;28;20215;-69
2023/10/18 09:09:56;;;;;;;5.95;5.35;;;;;;;13.41;59.03;95136.75;5044163;28;20228;-74
2023/10/18 09:17:54;;;;;;;6.18;5.63;;;;;;;13.35;58.83;95143.53;4938100;28;20232;-73
2023/10/18 09:20:25;;;;;;;5.60;5.18;;;;;;;13.44;58.49;95144.34;4940700;28;20637;-74
2023/10/18 09:22:54;;;;;;;6.55;5.95;;;;;;;13.42;59.49;95144.53;4940882;28;20229;-74
2023/10/18 09:25:24;;;;;;;6.03;5.45;;;;;;;13.45;58.75;95146.00;4937022;28;20229;-72
2023/10/18 09:27:52;;;;;;;6.68;5.97;;;;;;;13.59;58.28;95140.03;5006964;28;20233;-73
2023/10/18 09:30:20;;;;;;;6.30;5.70;;;;;;;13.11;59.45;95144.31;5019357;28;20298;-72
2023/10/18 09:32:46;;;;;;;6.50;5.90;;;;;;;13.19;59.56;95146.13;4997330;28;20229;-74
2023/10/18 09:35:13;;;;;;;6.47;5.88;;;;;;;13.32;59.60;95143.03;5020743;28;20232;-74
2023/10/18 09:37:38;;;;;;;6.70;6.00;;;;;;;13.44;58.90;95137.28;5005486;28;20227;-73
2023/10/18 09:40:05;;;;;;;7.53;6.72;;;;;;;13.47;58.29;95128.16;5013198;28;20606;-75
2023/10/18 09:42:31;;;;;;;7.25;6.38;;;;;;;13.57;58.54;95126.16;5016243;28;20221;-73
2023/10/18 09:44:59;;;;;;;6.72;6.13;;;;;;;13.64;57.71;95127.16;5010171;28;20223;-73
2023/10/18 09:47:26;;;;;;;9.57;6.72;;;;;;;13.65;58.04;95128.78;5005822;28;20233;-74
2023/10/18 09:49:55;;;;;;;6.82;6.13;;;;;;;13.56;58.70;95123.72;5010639;28;20178;-74
2023/10/18 09:52:24;;;;;;;6.22;5.60;;;;;;;13.64;58.33;95121.88;5069243;27;20561;-74
2023/10/18 09:54:50;;;;;;;9.00;5.47;;;;;;;13.52;58.50;95122.38;5096588;27;20221;-74
2023/10/18 09:57:24;;;;;;;5.57;5.07;;;;;;;13.62;58.32;95118.56;5113687;27;20659;-74
2023/10/18 09:59:54;;;;;;;5.70;5.18;;;;;;;13.66;58.25;95119.06;5106494;27;20310;-73
2023/10/18 10:02:20;;;;;;;6.68;5.95;;;;;;;13.76;57.91;95114.41;5106809;27;20207;-73
2023/10/18 10:04:52;;;;;;;6.05;5.55;;;;;;;13.78;57.48;95111.59;5110560;27;20200;-73
2023/10/18 10:07:27;;;;;;;7.18;5.63;;;;;;;13.78;57.31;95103.69;5110590;27;20215;-73
2023/10/18 10:10:07;;;;;;;6.57;5.88;;;;;;;13.72;57.91;95101.72;5108911;27;20274;-74
2023/10/18 10:12:34;;;;;;;6.05;5.55;;;;;;;13.71;58.05;95102.69;5111989;27;20229;-75
2023/10/18 10:15:00;;;;;;;6.90;6.30;;;;;;;13.74;58.74;95095.28;5113219;27;20218;-74
2023/10/18 10:17:28;;;;;;;8.32;6.07;;;;;;;13.81;58.23;95085.66;5111677;27;20226;-72
2023/10/18 10:20:01;;;;;;;5.97;5.47;;;;;;;13.74;58.66;95083.84;5110880;27;20209;-70
2023/10/18 10:22:27;;;;;;;6.10;5.25;;;;;;;13.89;58.39;95076.88;5105024;28;20303;-75
2023/10/18 10:25:04;;;;;;;5.40;4.90;;;;;;;13.95;56.69;95083.28;5109678;28;20245;-74
2023/10/18 10:30:03;;;;;;;5.40;4.90;;;;;;;13.76;58.18;95076.59;5112659;28;20219;-73
2023/10/18 10:32:30;;;;;;;5.20;4.70;;;;;;;13.75;57.69;95067.84;5104786;28;20223;-74
2023/10/18 10:35:35;;;;;;;7.82;5.13;;;;;;;13.71;58.39;95063.06;5114429;28;20190;-76
2023/10/18 10:38:13;;;;;;;5.47;4.97;;;;;;;13.87;57.84;95060.34;5030666;28;20217;-76
2023/10/18 10:40:48;;;;;;;5.60;5.10;;;;;;;13.88;58.32;95069.94;5036268;28;20295;-78
2023/10/18 10:43:13;;;;;;;6.88;6.18;;;;;;;13.91;58.19;95059.03;5051393;28;20295;-76
2023/10/18 10:51:08;;;;;;;6.07;5.53;;;;;;;13.89;58.35;95061.00;5039307;28;20222;-74
2023/10/18 10:53:44;;;;;;;6.47;5.88;;;;;;;13.86;58.39;95072.75;5018516;28;20217;-75
2023/10/18 10:56:30;;;;;;;6.00;5.35;;;;;;;13.93;59.32;95072.91;5038493;28;20328;-74
2023/10/18 11:04:29;;;;;;;7.18;5.13;;;;;;;13.88;57.91;95065.47;5047647;28;20230;-74
2023/10/18 11:07:03;;;;;;;7.22;5.32;;;;;;;13.99;57.45;95068.75;5044786;28;20319;-74
2023/10/18 11:09:33;;;;;;;5.88;5.38;;;;;;;13.90;57.98;95062.69;5044708;28;20218;-74
2023/10/18 11:12:07;;;;;;;6.63;6.03;;;;;;;13.84;58.85;95068.63;5047475;28;20221;-72
2023/10/18 11:14:36;;;;;;;5.57;5.05;;;;;;;13.89;57.45;95066.31;5101469;28;20215;-73
2023/10/18 11:19:59;;;;;;;7.18;5.68;;;;;;;13.59;58.97;95071.34;5113307;28;20294;-72
2023/10/18 11:22:29;;;;;;;6.90;5.53;;;;;;;13.68;58.61;95061.56;5107637;27;20239;-74
2023/10/18 11:24:56;;;;;;;6.35;5.53;;;;;;;13.63;60.30;95069.19;5106997;28;20235;-75
2023/10/18 11:27:26;;;;;;;6.15;5.55;;;;;;;13.54;59.62;95071.03;5128762;27;20249;-69
2023/10/18 11:30:13;;;;;;;6.38;5.10;;;;;;;13.54;59.41;95068.38;5094492;28;20233;-70
2023/10/18 11:32:39;;;;;;;8.25;5.80;;;;;;;13.61;59.92;95053.53;5093152;28;20218;-74
2023/10/18 11:35:16;;;;;;;5.32;4.78;;;;;;;13.51;59.19;95071.38;5077227;27;20192;-72
2023/10/18 11:37:44;;;;;;;6.13;5.07;;;;;;;13.42;59.56;95073.22;5094370;28;20179;-73
2023/10/18 11:40:18;;;;;;;6.30;5.30;;;;;;;13.49;60.45;95068.06;5125346;27;20242;-74
2023/10/18 11:42:54;;;;;;;5.90;5.40;;;;;;;13.36;59.42;95073.84;5112986;28;20221;-74
2023/10/18 11:45:20;;;;;;;6.00;5.40;;;;;;;13.40;59.55;95069.91;5108685;28;20214;-72
2023/10/18 11:47:51;;;;;;;6.00;5.50;;;;;;;13.50;59.81;95069.72;5106639;28;20744;-73
2023/10/18 11:50:26;;;;;;;5.93;5.43;;;;;;;13.66;58.65;95051.19;5089645;28;20180;-73
2023/10/18 11:52:52;;;;;;;9.10;7.20;;;;;;;13.55;59.86;95042.78;5109796;28;20214;-73
2023/10/18 11:55:20;;;;;;;8.20;5.88;;;;;;;13.61;59.78;95045.59;5110819;28;20286;-70
2023/10/18 11:57:49;;;;;;;8.45;7.65;;;;;;;13.62;59.50;95044.59;5111378;28;20219;-72
2023/10/18 12:02:49;;;;;;;6.30;5.70;;;;;;;13.54;59.34;95041.97;5109752;28;20223;-69
2023/10/18 12:05:17;;;;;;;6.88;6.28;;;;;;;13.48;59.28;95047.13;5107216;28;20186;-72
2023/10/18 12:07:45;;;;;;;6.05;5.45;;;;;;;13.71;58.73;95042.72;5107885;28;20243;-73
2023/10/18 12:10:17;;;;;;;7.70;7.00;;;;;;;13.61;59.83;95047.41;5127470;27;20239;-73
2023/10/18 12:12:44;;;;;;;6.60;5.80;;;;;;;13.45;58.91;95050.91;5110752;28;20301;-71
2023/10/18 12:15:10;;;;;;;6.43;5.40;;;;;;;13.53;59.05;95040.34;5109532;28;20224;-70
2023/10/18 12:17:35;;;;;;;6.32;5.72;;;;;;;13.72;58.77;95051.50;5109893;28;20219;-71
2023/10/18 12:20:00;;;;;;;7.18;5.70;;;;;;;13.67;58.49;95052.00;5111364;28;20199;-69
2023/10/18 12:22:26;;;;;;;6.93;6.22;;;;;;;13.50;58.93;95048.59;5109107;28;20235;-71
2023/10/18 12:24:52;;;;;;;6.65;5.53;;;;;;;13.65;59.46;95054.81;5107061;28;20235;-71
2023/10/18 12:27:35;;;;;;;6.75;6.15;;;;;;;13.59;58.96;95046.75;5125143;27;20267;-73
2023/10/18 12:30:27;;;;;;;8.27;7.57;;;;;;;13.67;58.95;95058.13;5112581;27;20307;-75
2023/10/18 12:32:54;;;;;;;7.78;6.97;;;;;;;13.75;57.55;95056.44;5092558;28;20216;-73
2023/10/18 12:35:20;;;;;;;10.90;9.57;;;;;;;13.67;59.11;95059.94;5109510;28;20260;-75
2023/10/18 12:37:54;;;;;;;7.05;6.38;;;;;;;13.63;59.27;95059.47;5112075;27;20264;-71
2023/10/18 12:40:40;;;;;;;8.23;6.65;;;;;;;13.64;59.78;95055.00;5109387;28;20222;-68
2023/10/18 12:43:13;;;;;;;6.88;6.28;;;;;;;13.47;59.65;95056.84;5109391;28;20614;-68
2023/10/18 12:45:42;;;;;;;8.18;7.43;;;;;;;13.62;59.29;95049.88;5104506;28;20215;-69